Weather at Greenville Spartanburg International Airport

Public forecast

Using degrees Fahrenheit for public forecast. Weather courtesy of forecast.io.

Current aviation weather report (METAR) for Greenville Spartanburg International Airport

Report is more than 6 hours old.

2024/06/24 20:53 (retrieved 6 hours ago)

KGSP 242053Z 33008KT 10SM CLR 34/13 A2986 RMK AO2 SLP096 T03440128 56013

Aviation forecast (TAF) for Greenville Spartanburg International Airport

Forecast is more than 6 hours old.

2024/06/24 18:45 (retrieved 8 hours ago)

TAF KGSP 241742Z 2418/2518 35006KT P6SM SCT050 FM250100 01004KT P6SM FEW250 FM251300 03008KT P6SM SCT050